This is the latest recevied weather packets stored in our database for station/object N1IJV-10. If no packets are shown the sender has not sent any weather packets the latest 1 day(s).
| Time | Temp. | Humidity | Pressure | Rain* | Wind** | Luminosity | Snow |
|---|---|---|---|---|---|---|---|
| 1777995084 | 12.22° C | 55% | 1008.1 hPa | 0 mm | 1.34 m/s, 26° | 617 W/m² | - |
| 1777994780 | 12.22° C | 55% | 1008 hPa | 0 mm | 0.89 m/s, 265° | 640 W/m² | - |
| 1777994476 | 11.67° C | 62% | 1008.1 hPa | 0 mm | 0.89 m/s, 340° | 553 W/m² | - |
| 1777994171 | 11.67° C | 54% | 1008.1 hPa | 0 mm | 0.89 m/s, 266° | 345 W/m² | - |
| 1777993869 | 11.67° C | 57% | 1008.2 hPa | 0 mm | 1.34 m/s, 274° | 449 W/m² | - |
| 1777993565 | 11.11° C | 57% | 1008 hPa | 0 mm | 0.89 m/s, 273° | 318 W/m² | - |
| 1777993262 | 12.22° C | 64% | 1008.3 hPa | 0 mm | 0.89 m/s, 13° | 262 W/m² | - |
| 1777992958 | 11.11° C | 66% | 1008.3 hPa | 0 mm | 0.89 m/s, 276° | 628 W/m² | - |
| 1777992656 | 10° C | 63% | 1008.3 hPa | 0 mm | 0 m/s | 448 W/m² | - |
| 1777992354 | 10.56° C | 66% | 1008.2 hPa | 0 mm | 0.45 m/s, 25° | 174 W/m² | - |
| 1777992051 | 10° C | 63% | 1008.2 hPa | 0 mm | 0.45 m/s, 62° | 226 W/m² | - |
| 1777991748 | 10° C | 64% | 1008.1 hPa | 0 mm | 0.45 m/s, 112° | 203 W/m² | - |
| 1777991445 | 11.11° C | 67% | 1007.9 hPa | 0 mm | 0.45 m/s, 63° | 164 W/m² | - |
| 1777991143 | 10.56° C | 71% | 1008 hPa | 0 mm | 0.45 m/s, 340° | 610 W/m² | - |
| 1777990840 | 10° C | 77% | 1008 hPa | 0 mm | 0.45 m/s, 137° | 490 W/m² | - |
| 1777990537 | 9.44° C | 82% | 1008.1 hPa | 0 mm | 0 m/s | 221 W/m² | - |
| 1777990234 | 8.89° C | 81% | 1008.7 hPa | 0 mm | 0 m/s | 153 W/m² | - |
| 1777989931 | 8.89° C | 82% | 1008.6 hPa | 0 mm | 0.45 m/s, 48° | 147 W/m² | - |
| 1777989628 | 8.89° C | 85% | 1008.8 hPa | 0 mm | 0 m/s | 137 W/m² | - |
| 1777989324 | 8.89° C | 85% | 1009.1 hPa | 0 mm | 0 m/s | 130 W/m² | - |
| 1777989020 | 8.33° C | 85% | 1008.8 hPa | 0 mm | 0 m/s | 110 W/m² | - |
| 1777988716 | 8.33° C | 87% | 1009.4 hPa | 0 mm | 0 m/s | 119 W/m² | - |
| 1777988414 | 8.33° C | 87% | 1009.1 hPa | 0 mm | 0 m/s | 120 W/m² | - |
| 1777988110 | 8.33° C | 89% | 1009.1 hPa | 0 mm | 0.45 m/s, 220° | 115 W/m² | - |
| 1777987806 | 7.78° C | 90% | 1009.2 hPa | 0 mm | 0.45 m/s, 101° | 138 W/m² | - |
* Rain latest hour (hover to see other rain measurements)
** Current wind speed in m/s (hover to see current wind gust speed)